Time;durP1;ratioP1;P1;durP2;ratioP2;P2;SDS_P1;SDS_P2;PMS_P1;PMS_P2;Temp;Humidity;BMP_temperature;BMP_pressure;BME280_temperature;BME280_humidity;BME280_pressure;Samples;Min_cycle;Max_cycle;Signal;HPM_P1;HPM_P2
2020/12/10 20:28:41;;;;;;;23.43;9.33;;;;;;;;;;5109165;27;20569;-78
2020/12/10 20:31:07;;;;;;;7.03;4.10;;;;;;;;;;5062647;28;20246;-79
2020/12/10 20:33:34;;;;;;;0.40;0.40;;;;;;;;;;5058324;28;20207;-79
2020/12/10 20:36:01;;;;;;;0.30;0.30;;;;;;;;;;5058996;28;20507;-79
2020/12/10 20:38:27;;;;;;;0.30;0.30;;;;;;;;;;5085208;28;20458;-80
2020/12/10 20:40:54;;;;;;;0.30;0.30;;;;;;;;;;5068774;28;20199;-72
2020/12/10 20:43:23;;;;;;;0.30;0.30;;;;;;;;;;5062599;28;20258;-77
2020/12/10 20:45:50;;;;;;;0.30;0.30;;;;;;;;;;5080363;28;20233;-77
2020/12/10 20:48:16;;;;;;;0.30;0.30;;;;;;;;;;5059210;28;20356;-74
2020/12/10 20:50:43;;;;;;;0.30;0.30;;;;;;;;;;5065773;28;20203;-77
2020/12/10 20:53:09;;;;;;;0.30;0.30;;;;;;;;;;5054080;28;20435;-78
2020/12/10 20:55:36;;;;;;;1.23;1.17;;;;;;;;;;5055103;28;20202;-74
2020/12/10 20:58:02;;;;;;;0.30;0.30;;;;;;;;;;5051131;28;20290;-77
2020/12/10 21:00:29;;;;;;;0.30;0.30;;;;;;;;;;5047902;28;20198;-76
2020/12/10 21:02:57;;;;;;;0.30;0.30;;;;;;;;;;5052230;28;20421;-77
2020/12/10 21:05:23;;;;;;;0.30;0.30;;;;;;;;;;5061248;28;20241;-79
2020/12/10 21:07:50;;;;;;;0.20;0.20;;;;;;;;;;5062869;28;20411;-78
2020/12/10 21:10:16;;;;;;;1.67;1.60;;;;;;;;;;5062964;28;20530;-78
2020/12/10 21:12:42;;;;;;;0.40;0.40;;;;;;;;;;5052933;28;20202;-79
2020/12/10 21:15:09;;;;;;;0.30;0.30;;;;;;;;;;5073575;28;20308;-77
2020/12/10 21:17:36;;;;;;;0.30;0.30;;;;;;;;;;5046808;28;20245;-78
2020/12/10 21:20:03;;;;;;;0.30;0.30;;;;;;;;;;5044936;28;20234;-78
2020/12/10 21:22:30;;;;;;;0.30;0.30;;;;;;;;;;5053216;28;20203;-77
2020/12/10 21:24:56;;;;;;;0.30;0.30;;;;;;;;;;5049949;28;20210;-78
2020/12/10 21:27:23;;;;;;;0.30;0.30;;;;;;;;;;5046712;28;20405;-78
2020/12/10 21:29:49;;;;;;;0.30;0.30;;;;;;;;;;5047334;28;20497;-73
2020/12/10 21:32:16;;;;;;;0.37;0.37;;;;;;;;;;5042709;28;20203;-75
2020/12/10 21:34:43;;;;;;;1.23;1.23;;;;;;;;;;5050522;28;20244;-76
2020/12/10 21:37:10;;;;;;;0.60;0.60;;;;;;;;;;5051502;28;20219;-76
2020/12/10 21:39:36;;;;;;;0.93;0.93;;;;;;;;;;5050270;28;20210;-75
2020/12/10 21:42:03;;;;;;;0.30;0.30;;;;;;;;;;5032990;28;20350;-77
2020/12/10 21:44:30;;;;;;;0.30;0.30;;;;;;;;;;5036527;28;20242;-76
2020/12/10 21:46:57;;;;;;;2.40;2.30;;;;;;;;;;5038613;28;20233;-78
2020/12/10 21:49:24;;;;;;;0.37;0.37;;;;;;;;;;5032903;28;20223;-79
2020/12/10 21:51:50;;;;;;;0.27;0.27;;;;;;;;;;5048971;28;20229;-72
2020/12/10 21:54:18;;;;;;;0.30;0.30;;;;;;;;;;5049530;28;20231;-77
2020/12/10 21:56:44;;;;;;;0.30;0.30;;;;;;;;;;5034500;28;20220;-78
2020/12/10 21:59:11;;;;;;;0.20;0.20;;;;;;;;;;5029256;28;20376;-77
2020/12/10 22:01:37;;;;;;;0.30;0.30;;;;;;;;;;5035302;28;20242;-76
2020/12/10 22:04:03;;;;;;;2.30;2.20;;;;;;;;;;5032704;28;20558;-77
2020/12/10 22:06:30;;;;;;;0.30;0.30;;;;;;;;;;5045406;28;20227;-77
2020/12/10 22:08:57;;;;;;;0.30;0.30;;;;;;;;;;5044118;28;20411;-76
2020/12/10 22:11:25;;;;;;;0.30;0.30;;;;;;;;;;5027337;28;20451;-78
2020/12/10 22:13:54;;;;;;;0.30;0.30;;;;;;;;;;5023780;28;20238;-75
2020/12/10 22:16:21;;;;;;;3.80;2.63;;;;;;;;;;5034521;28;20222;-76
2020/12/10 22:18:49;;;;;;;0.57;0.57;;;;;;;;;;5036539;28;20200;-74
2020/12/10 22:21:15;;;;;;;0.30;0.30;;;;;;;;;;5059495;28;20275;-75
2020/12/10 22:23:42;;;;;;;0.30;0.30;;;;;;;;;;5051901;28;20272;-76
2020/12/10 22:26:08;;;;;;;0.30;0.30;;;;;;;;;;5059386;28;20222;-74
2020/12/10 22:28:35;;;;;;;1.70;1.70;;;;;;;;;;5047592;28;20223;-74
2020/12/10 22:31:05;;;;;;;1.53;1.43;;;;;;;;;;5048711;28;20488;-74
2020/12/10 22:33:31;;;;;;;0.30;0.30;;;;;;;;;;5051248;28;20208;-76
2020/12/10 22:35:57;;;;;;;1.17;1.17;;;;;;;;;;5028200;28;20211;-75
2020/12/10 22:38:24;;;;;;;0.30;0.30;;;;;;;;;;5048075;28;20265;-75
2020/12/10 22:40:51;;;;;;;0.30;0.30;;;;;;;;;;5036550;28;20246;-75
2020/12/10 22:43:17;;;;;;;2.93;2.83;;;;;;;;;;5035132;28;20300;-75
2020/12/10 22:45:44;;;;;;;0.40;0.40;;;;;;;;;;5050937;28;20392;-75
2020/12/10 22:48:13;;;;;;;0.30;0.30;;;;;;;;;;5045832;28;20266;-74
2020/12/10 22:50:40;;;;;;;0.30;0.30;;;;;;;;;;5045025;28;20218;-75
2020/12/10 22:53:08;;;;;;;0.30;0.30;;;;;;;;;;5031792;28;20229;-76
2020/12/10 22:55:34;;;;;;;0.30;0.30;;;;;;;;;;5051216;28;20283;-75
2020/12/10 22:58:01;;;;;;;0.30;0.30;;;;;;;;;;5031154;28;20244;-75
2020/12/10 23:00:28;;;;;;;0.30;0.30;;;;;;;;;;5029921;28;20210;-75
2020/12/10 23:02:56;;;;;;;0.30;0.30;;;;;;;;;;5047355;28;20219;-74
2020/12/10 23:05:22;;;;;;;0.30;0.30;;;;;;;;;;5031160;28;20203;-75
2020/12/10 23:07:48;;;;;;;0.30;0.30;;;;;;;;;;5046341;28;20204;-74
2020/12/10 23:10:15;;;;;;;0.60;0.60;;;;;;;;;;5031028;28;20537;-74
2020/12/10 23:12:41;;;;;;;0.70;0.70;;;;;;;;;;5024803;28;20270;-75
2020/12/10 23:15:08;;;;;;;0.20;0.20;;;;;;;;;;5029609;28;20230;-75
2020/12/10 23:17:34;;;;;;;0.77;0.77;;;;;;;;;;5047161;28;20219;-75
2020/12/10 23:20:02;;;;;;;0.30;0.30;;;;;;;;;;5030683;28;20232;-74
2020/12/10 23:22:28;;;;;;;5.90;5.60;;;;;;;;;;5038320;28;20203;-74
2020/12/10 23:24:54;;;;;;;0.83;0.83;;;;;;;;;;5050474;28;20203;-74
2020/12/10 23:27:20;;;;;;;0.23;0.23;;;;;;;;;;5041780;28;20230;-75
2020/12/10 23:29:47;;;;;;;0.30;0.30;;;;;;;;;;5055539;28;20489;-74
2020/12/10 23:32:13;;;;;;;0.20;0.20;;;;;;;;;;5043213;28;20238;-74
2020/12/10 23:34:40;;;;;;;0.30;0.30;;;;;;;;;;5057330;28;20286;-74
2020/12/10 23:37:07;;;;;;;2.30;1.67;;;;;;;;;;5044942;28;20301;-75
2020/12/10 23:39:34;;;;;;;1.20;1.20;;;;;;;;;;5045126;28;20228;-75
2020/12/10 23:42:00;;;;;;;0.30;0.30;;;;;;;;;;5061512;28;20202;-75
2020/12/10 23:44:26;;;;;;;0.30;0.30;;;;;;;;;;5043521;28;20208;-75
2020/12/10 23:46:53;;;;;;;0.40;0.40;;;;;;;;;;5051850;28;20193;-75
2020/12/10 23:49:19;;;;;;;1.60;1.50;;;;;;;;;;5023462;28;20247;-75
2020/12/10 23:51:46;;;;;;;0.30;0.30;;;;;;;;;;5039866;28;20211;-74
2020/12/10 23:54:13;;;;;;;0.20;0.20;;;;;;;;;;5060130;28;20239;-75
2020/12/10 23:56:40;;;;;;;0.30;0.30;;;;;;;;;;5047356;28;20445;-75
2020/12/10 23:59:07;;;;;;;0.30;0.30;;;;;;;;;;5060941;28;20212;-75
